Time;durP1;ratioP1;P1;durP2;ratioP2;P2;SDS_P1;SDS_P2;PMS_P1;PMS_P2;Temp;Humidity;BMP_temperature;BMP_pressure;BME280_temperature;BME280_humidity;BME280_pressure;Samples;Min_cycle;Max_cycle;Signal;HPM_P1;HPM_P2
2023/05/02 00:01:26;;;;;;;29.10;21.73;;;14.50;55.50;;;;;;5036398;28;20049;-43
2023/05/02 00:03:55;;;;;;;31.10;22.77;;;14.50;55.60;;;;;;5039121;28;20474;-44
2023/05/02 00:06:22;;;;;;;29.48;22.65;;;14.50;55.70;;;;;;5037520;28;20045;-45
2023/05/02 00:08:49;;;;;;;31.70;23.63;;;14.50;56.10;;;;;;5039552;28;20509;-46
2023/05/02 00:11:17;;;;;;;29.08;21.95;;;14.50;55.90;;;;;;5035331;28;20076;-46
2023/05/02 00:13:44;;;;;;;31.25;25.10;;;14.50;56.00;;;;;;5036786;28;20060;-44
2023/05/02 00:16:11;;;;;;;31.80;23.17;;;14.50;56.10;;;;;;5037567;28;20404;-44
2023/05/02 00:18:38;;;;;;;30.83;24.00;;;14.50;56.30;;;;;;5038691;28;20080;-45
2023/05/02 00:21:07;;;;;;;32.15;21.60;;;14.50;56.40;;;;;;5036479;28;20053;-45
2023/05/02 00:23:34;;;;;;;31.40;24.10;;;14.50;56.50;;;;;;5036095;28;20052;-45
2023/05/02 00:26:02;;;;;;;29.77;23.40;;;14.40;56.60;;;;;;5038383;28;20053;-44
2023/05/02 00:28:29;;;;;;;33.22;24.40;;;14.50;56.70;;;;;;5039143;28;20056;-45
2023/05/02 00:30:56;;;;;;;28.52;23.05;;;14.50;56.80;;;;;;5040511;28;20052;-45
2023/05/02 00:33:23;;;;;;;32.15;23.25;;;14.50;56.80;;;;;;5042494;28;20057;-44
2023/05/02 00:35:51;;;;;;;28.13;22.75;;;14.50;56.80;;;;;;5041123;28;20056;-43
2023/05/02 00:38:20;;;;;;;33.45;23.77;;;14.50;56.80;;;;;;5039693;28;20060;-43
2023/05/02 00:40:51;;;;;;;31.98;24.35;;;14.50;56.90;;;;;;5042215;28;20053;-44
2023/05/02 00:43:18;;;;;;;28.45;21.52;;;14.50;56.90;;;;;;5042508;28;20057;-44
2023/05/02 00:45:46;;;;;;;34.03;24.48;;;14.50;56.90;;;;;;5039569;28;20064;-44
2023/05/02 00:48:14;;;;;;;44.08;26.88;;;14.50;56.90;;;;;;5037510;28;20049;-44
2023/05/02 00:50:42;;;;;;;32.53;25.25;;;14.50;57.00;;;;;;5042405;28;20056;-45
2023/05/02 00:53:10;;;;;;;31.33;23.95;;;14.50;57.10;;;;;;5041672;28;20523;-44
2023/05/02 00:55:39;;;;;;;30.48;23.15;;;14.50;57.10;;;;;;5041092;28;20061;-48
2023/05/02 00:58:11;;;;;;;31.58;24.25;;;14.50;57.10;;;;;;5036965;28;20048;-45
2023/05/02 01:00:50;;;;;;;33.30;25.25;;;14.50;57.20;;;;;;5040489;28;20493;-47
2023/05/02 01:03:26;;;;;;;32.20;23.33;;;14.60;57.20;;;;;;5058512;23;20053;-45
2023/05/02 01:06:02;;;;;;;32.97;25.40;;;14.50;57.10;;;;;;5003051;28;20050;-47
2023/05/02 01:08:36;;;;;;;35.92;25.67;;;14.50;57.10;;;;;;5003012;28;20053;-44
2023/05/02 01:11:14;;;;;;;32.13;24.20;;;14.50;57.20;;;;;;5001815;28;20417;-47
2023/05/02 01:13:43;;;;;;;39.58;29.55;;;14.50;57.30;;;;;;5004031;28;20057;-46
2023/05/02 01:16:14;;;;;;;39.75;29.13;;;14.50;57.80;;;;;;5001526;28;20046;-43
2023/05/02 01:18:43;;;;;;;35.55;26.40;;;14.50;57.40;;;;;;5000720;28;20603;-47
2023/05/02 01:21:12;;;;;;;42.67;30.02;;;14.50;57.50;;;;;;5003995;28;20072;-47
2023/05/02 01:23:46;;;;;;;44.50;31.02;;;14.50;57.60;;;;;;5001079;28;20054;-43
2023/05/02 01:26:32;;;;;;;44.22;29.45;;;14.50;58.00;;;;;;5003406;28;20409;-48
2023/05/02 01:29:03;;;;;;;41.60;28.98;;;14.40;58.20;;;;;;5003583;28;20398;-45
2023/05/02 01:31:34;;;;;;;42.75;28.88;;;14.50;58.50;;;;;;5000032;28;20057;-48
2023/05/02 01:34:03;;;;;;;45.70;29.58;;;14.50;58.10;;;;;;4999389;28;20519;-48
2023/05/02 01:36:32;;;;;;;47.58;31.02;;;14.50;58.30;;;;;;5002075;28;20500;-47
2023/05/02 01:39:01;;;;;;;45.13;32.60;;;14.40;58.40;;;;;;5021911;28;20045;-49
2023/05/02 01:41:31;;;;;;;46.58;31.83;;;14.40;58.40;;;;;;5019025;28;20061;-45
2023/05/02 01:44:02;;;;;;;48.13;32.80;;;14.40;58.50;;;;;;5017400;28;20057;-45
2023/05/02 01:46:33;;;;;;;50.88;34.50;;;14.40;58.60;;;;;;5017742;28;20053;-46
2023/05/02 01:49:03;;;;;;;49.63;33.75;;;14.40;59.20;;;;;;5022407;28;20042;-50
2023/05/02 01:51:33;;;;;;;48.15;33.85;;;14.30;58.80;;;;;;5021839;28;20054;-50
2023/05/02 01:54:04;;;;;;;50.85;33.25;;;14.30;58.80;;;;;;5022347;28;20404;-47
2023/05/02 01:56:33;;;;;;;49.50;33.15;;;14.30;58.90;;;;;;5021861;28;20057;-46
2023/05/02 01:59:04;;;;;;;58.28;35.10;;;14.30;59.00;;;;;;5022962;28;20057;-50
2023/05/02 02:01:32;;;;;;;50.25;34.28;;;14.30;59.20;;;;;;5020052;28;20060;-47
2023/05/02 02:04:01;;;;;;;52.88;34.67;;;14.20;59.20;;;;;;5027643;28;20049;-49
2023/05/02 02:06:28;;;;;;;53.45;33.63;;;14.20;59.20;;;;;;5038367;28;20044;-51
2023/05/02 02:08:56;;;;;;;50.90;32.85;;;14.20;59.10;;;;;;5039414;28;20053;-46
2023/05/02 02:11:29;;;;;;;58.97;36.65;;;14.10;59.20;;;;;;5038883;28;20059;-44
2023/05/02 02:14:04;;;;;;;52.80;33.50;;;14.10;59.20;;;;;;5040852;28;20583;-47
2023/05/02 02:16:37;;;;;;;52.08;33.83;;;14.10;59.30;;;;;;5033654;28;20053;-47
2023/05/02 02:19:07;;;;;;;53.72;34.85;;;14.10;59.30;;;;;;5040812;28;20044;-48
2023/05/02 02:21:35;;;;;;;59.58;37.58;;;14.10;59.30;;;;;;5038746;28;20084;-48
2023/05/02 02:24:05;;;;;;;60.60;35.72;;;14.00;59.30;;;;;;5037454;28;20063;-48
2023/05/02 02:26:32;;;;;;;56.92;34.15;;;14.00;59.30;;;;;;5039574;28;20416;-47
2023/05/02 02:29:02;;;;;;;59.90;36.15;;;14.00;59.40;;;;;;5040957;28;20060;-47
2023/05/02 02:31:32;;;;;;;69.10;37.13;;;14.00;59.40;;;;;;5034318;28;21203;-51
2023/05/02 02:34:00;;;;;;;61.70;38.05;;;14.00;59.60;;;;;;5039332;28;20045;-48
2023/05/02 02:36:33;;;;;;;63.20;37.40;;;14.00;59.60;;;;;;5040625;28;20505;-49
2023/05/02 02:39:12;;;;;;;53.20;34.38;;;14.00;59.70;;;;;;5036686;28;20061;-45
2023/05/02 02:41:46;;;;;;;55.28;34.85;;;14.00;59.70;;;;;;5040058;28;20045;-41
2023/05/02 02:44:28;;;;;;;66.25;39.45;;;14.00;59.70;;;;;;5039616;28;20053;-46
2023/05/02 02:47:06;;;;;;;66.68;39.65;;;13.90;59.80;;;;;;5037405;28;20048;-44
2023/05/02 02:49:44;;;;;;;73.43;43.53;;;13.90;59.70;;;;;;5035385;28;20515;-46
2023/05/02 02:52:21;;;;;;;66.10;39.92;;;13.90;60.00;;;;;;5039956;28;20424;-46
2023/05/02 02:54:57;;;;;;;68.22;40.75;;;13.90;59.90;;;;;;5035556;28;20515;-46
2023/05/02 02:57:29;;;;;;;69.38;42.10;;;13.80;59.80;;;;;;5034464;28;20059;-45
2023/05/02 03:00:06;;;;;;;73.53;42.97;;;13.90;59.90;;;;;;5036734;28;20415;-44
2023/05/02 03:02:35;;;;;;;62.25;35.95;;;13.80;60.10;;;;;;5039966;28;20412;-45
2023/05/02 03:05:05;;;;;;;74.70;43.92;;;13.80;59.90;;;;;;5035722;28;20063;-43
2023/05/02 03:07:33;;;;;;;76.18;45.30;;;13.80;60.10;;;;;;5031262;28;20045;-42
2023/05/02 03:10:03;;;;;;;79.22;45.72;;;13.80;60.30;;;;;;5037819;28;20552;-45
2023/05/02 03:12:31;;;;;;;76.50;45.70;;;13.80;60.50;;;;;;5041239;28;20060;-41
2023/05/02 03:15:14;;;;;;;72.57;42.00;;;13.70;60.30;;;;;;5033699;28;20053;-44
2023/05/02 03:17:41;;;;;;;85.20;49.00;;;13.70;60.60;;;;;;5040706;28;20053;-46
2023/05/02 03:20:09;;;;;;;79.45;46.28;;;13.70;60.80;;;;;;5037364;28;20052;-48
2023/05/02 03:22:36;;;;;;;92.28;52.03;;;13.70;60.90;;;;;;5036751;28;20064;-46
2023/05/02 03:25:04;;;;;;;86.75;48.80;;;13.70;61.30;;;;;;5039496;28;20091;-48
2023/05/02 03:27:31;;;;;;;95.88;52.15;;;13.60;61.00;;;;;;5038100;28;20079;-46
2023/05/02 03:30:00;;;;;;;104.35;56.28;;;13.60;61.10;;;;;;5034536;28;20056;-41
2023/05/02 03:32:27;;;;;;;97.07;53.40;;;13.60;61.50;;;;;;5031083;28;20416;-44
2023/05/02 03:34:57;;;;;;;97.20;53.22;;;13.60;61.50;;;;;;5032667;28;20055;-44
2023/05/02 03:37:24;;;;;;;95.15;51.15;;;13.50;61.50;;;;;;5038271;28;20045;-46
2023/05/02 03:39:51;;;;;;;96.53;52.67;;;13.50;61.60;;;;;;5035316;28;20053;-43
2023/05/02 03:42:19;;;;;;;94.35;49.50;;;13.50;61.90;;;;;;5034114;28;20064;-49
2023/05/02 03:44:46;;;;;;;95.60;52.08;;;13.50;61.90;;;;;;5032562;28;20400;-43
2023/05/02 03:47:14;;;;;;;89.15;48.17;;;13.40;62.30;;;;;;5036833;28;20056;-47
2023/05/02 03:49:41;;;;;;;96.22;50.47;;;13.40;62.30;;;;;;5038409;28;20052;-50
2023/05/02 03:52:09;;;;;;;91.63;45.65;;;13.40;62.30;;;;;;5032524;28;20053;-44
2023/05/02 03:54:36;;;;;;;86.35;42.47;;;13.30;62.40;;;;;;5036020;28;20428;-45
2023/05/02 03:57:04;;;;;;;73.82;37.97;;;13.30;62.40;;;;;;5039444;28;20053;-46
2023/05/02 03:59:33;;;;;;;76.60;40.50;;;13.30;62.40;;;;;;5038767;28;20049;-47
2023/05/02 04:02:01;;;;;;;76.55;40.60;;;13.30;62.60;;;;;;5036703;28;20412;-46
2023/05/02 04:04:29;;;;;;;69.60;37.65;;;13.20;62.50;;;;;;5033038;28;20058;-51
2023/05/02 04:06:56;;;;;;;71.05;38.60;;;13.30;62.50;;;;;;5037884;28;20063;-50
2023/05/02 04:09:24;;;;;;;75.15;38.28;;;13.30;62.60;;;;;;5043838;28;20073;-53
2023/05/02 04:11:52;;;;;;;64.35;33.92;;;13.20;62.60;;;;;;5039032;28;20059;-52
2023/05/02 04:14:19;;;;;;;65.10;33.53;;;13.20;62.30;;;;;;5037210;28;20063;-49
2023/05/02 04:16:49;;;;;;;64.97;33.63;;;13.20;62.30;;;;;;5037208;28;20052;-51
2023/05/02 04:19:17;;;;;;;64.72;33.30;;;13.20;62.40;;;;;;5037789;28;20681;-49
2023/05/02 04:21:46;;;;;;;64.88;34.40;;;13.20;62.40;;;;;;5034948;28;20064;-51
2023/05/02 04:24:13;;;;;;;68.22;34.10;;;13.20;62.60;;;;;;5035854;28;21659;-48
2023/05/02 04:26:40;;;;;;;62.05;33.72;;;13.20;62.40;;;;;;5035901;28;20086;-46
2023/05/02 04:29:08;;;;;;;61.47;33.15;;;13.30;62.40;;;;;;5035242;28;20053;-46
2023/05/02 04:31:35;;;;;;;64.20;35.03;;;13.20;62.40;;;;;;5033833;28;20420;-47
2023/05/02 04:34:03;;;;;;;67.57;33.92;;;13.30;62.40;;;;;;5030090;28;20053;-47
2023/05/02 04:36:31;;;;;;;62.88;33.47;;;13.20;62.40;;;;;;5025608;28;20049;-48
2023/05/02 04:38:59;;;;;;;60.22;31.98;;;13.20;62.60;;;;;;5034252;28;20049;-47
2023/05/02 04:41:28;;;;;;;69.80;35.15;;;13.30;62.70;;;;;;5033163;28;20386;-47
2023/05/02 04:43:55;;;;;;;63.35;34.08;;;13.30;62.70;;;;;;5033640;28;20504;-47
2023/05/02 04:46:22;;;;;;;68.30;36.45;;;13.30;62.60;;;;;;5036975;28;20061;-48
2023/05/02 04:48:49;;;;;;;62.92;32.97;;;13.20;62.50;;;;;;5039881;28;20484;-50
2023/05/02 04:51:17;;;;;;;66.63;34.95;;;13.30;62.50;;;;;;5037441;28;20071;-50
2023/05/02 04:53:44;;;;;;;62.63;32.65;;;13.20;62.50;;;;;;5032235;28;20526;-46
2023/05/02 04:56:13;;;;;;;59.38;31.95;;;13.30;62.50;;;;;;5033521;28;20052;-47
2023/05/02 04:58:40;;;;;;;63.22;33.45;;;13.30;62.60;;;;;;5036346;28;20063;-50
2023/05/02 05:01:07;;;;;;;68.32;36.78;;;13.30;62.50;;;;;;5032315;28;20064;-49
2023/05/02 05:03:34;;;;;;;64.22;36.00;;;13.30;62.50;;;;;;5036950;28;20064;-46
2023/05/02 05:06:02;;;;;;;64.93;34.78;;;13.40;62.50;;;;;;5032882;28;20056;-50
2023/05/02 05:08:29;;;;;;;69.03;35.85;;;13.30;62.50;;;;;;5033926;28;20056;-46
2023/05/02 05:10:56;;;;;;;69.70;38.53;;;13.40;62.70;;;;;;5032845;28;20484;-49
2023/05/02 05:13:25;;;;;;;81.38;40.42;;;13.40;62.70;;;;;;5037125;28;20049;-49
2023/05/02 05:15:52;;;;;;;76.00;38.72;;;13.30;62.70;;;;;;5035925;28;20538;-47
2023/05/02 05:18:20;;;;;;;65.18;35.33;;;13.30;62.70;;;;;;5037568;28;20055;-49
2023/05/02 05:20:47;;;;;;;77.40;39.45;;;13.30;62.70;;;;;;5037905;28;20056;-48
2023/05/02 05:23:14;;;;;;;67.60;37.08;;;13.30;62.80;;;;;;5035847;28;20493;-49
2023/05/02 05:25:42;;;;;;;69.85;36.42;;;13.30;62.70;;;;;;5035041;28;20150;-47
2023/05/02 05:28:10;;;;;;;73.00;38.53;;;13.40;62.80;;;;;;5037020;28;20377;-45
2023/05/02 05:30:38;;;;;;;74.07;38.95;;;13.40;62.80;;;;;;5038047;28;20048;-47
2023/05/02 05:33:05;;;;;;;77.82;40.08;;;13.40;63.00;;;;;;5038397;28;20056;-46
2023/05/02 05:35:33;;;;;;;68.90;36.85;;;13.40;62.90;;;;;;5040117;28;20063;-49
2023/05/02 05:38:00;;;;;;;79.75;41.17;;;13.40;63.00;;;;;;5034980;28;20057;-48
2023/05/02 05:40:27;;;;;;;73.07;37.92;;;13.40;63.10;;;;;;5035516;28;20068;-47
2023/05/02 05:42:55;;;;;;;78.25;39.15;;;13.40;63.40;;;;;;5038313;28;20053;-47
2023/05/02 05:45:22;;;;;;;73.20;38.85;;;13.40;63.40;;;;;;5033968;28;20519;-51
2023/05/02 05:47:50;;;;;;;86.03;39.78;;;13.30;63.30;;;;;;5037213;28;20052;-46
2023/05/02 05:50:18;;;;;;;70.68;37.70;;;13.30;63.60;;;;;;5037670;28;20049;-51
2023/05/02 05:52:45;;;;;;;70.57;36.53;;;13.30;63.60;;;;;;5039966;28;20060;-50
2023/05/02 05:55:12;;;;;;;72.68;38.80;;;13.40;63.80;;;;;;5035398;28;20057;-46
2023/05/02 05:57:40;;;;;;;78.35;41.35;;;13.30;64.00;;;;;;5038998;28;20560;-45
2023/05/02 06:00:09;;;;;;;81.07;41.67;;;13.30;64.20;;;;;;5033854;28;20072;-45
2023/05/02 06:02:36;;;;;;;73.32;39.30;;;13.30;64.50;;;;;;5034981;28;20049;-45
2023/05/02 06:05:05;;;;;;;77.82;38.58;;;13.30;64.40;;;;;;5033257;28;20057;-43
2023/05/02 06:07:33;;;;;;;76.80;39.95;;;13.30;64.60;;;;;;5036256;28;20176;-49
2023/05/02 06:10:00;;;;;;;77.35;41.15;;;13.30;64.70;;;;;;5033638;28;20060;-46
2023/05/02 06:12:27;;;;;;;77.28;39.28;;;13.30;64.80;;;;;;5031189;28;20064;-44
2023/05/02 06:14:54;;;;;;;73.18;38.15;;;13.30;65.00;;;;;;5035231;28;20072;-46
2023/05/02 06:17:22;;;;;;;76.30;41.67;;;13.30;65.10;;;;;;5038500;28;20053;-47
2023/05/02 06:19:49;;;;;;;73.63;38.70;;;13.30;65.20;;;;;;5035167;28;20389;-45
2023/05/02 06:22:17;;;;;;;72.40;38.80;;;13.30;65.20;;;;;;5031794;28;20057;-46
2023/05/02 06:24:45;;;;;;;80.40;42.75;;;13.40;65.30;;;;;;5032107;28;20053;-48
2023/05/02 06:27:12;;;;;;;75.68;38.40;;;13.40;66.00;;;;;;5037240;28;20057;-45
2023/05/02 06:29:39;;;;;;;77.43;39.60;;;13.40;65.20;;;;;;5034892;28;20044;-43
2023/05/02 06:32:07;;;;;;;79.45;40.38;;;13.50;65.20;;;;;;5034535;28;20053;-45
2023/05/02 06:34:34;;;;;;;69.32;37.20;;;13.50;65.20;;;;;;5035491;28;20072;-45
2023/05/02 06:37:02;;;;;;;80.90;41.45;;;13.50;65.00;;;;;;5038146;28;20525;-45
2023/05/02 06:39:31;;;;;;;76.75;38.85;;;13.50;65.00;;;;;;5032308;28;20064;-42
2023/05/02 06:41:58;;;;;;;70.30;37.03;;;13.50;65.00;;;;;;5033421;28;20068;-47
2023/05/02 06:44:26;;;;;;;67.82;35.45;;;13.50;64.80;;;;;;5026936;28;20523;-49
2023/05/02 06:46:54;;;;;;;67.45;35.38;;;13.60;64.80;;;;;;5033006;28;20056;-48
2023/05/02 06:49:21;;;;;;;72.57;39.17;;;13.60;64.70;;;;;;5038204;28;20057;-47
2023/05/02 06:51:49;;;;;;;79.05;40.35;;;13.50;64.80;;;;;;5038780;28;20511;-44
2023/05/02 06:54:16;;;;;;;74.10;40.20;;;13.50;65.00;;;;;;5036519;28;20060;-44
2023/05/02 06:56:45;;;;;;;69.68;37.53;;;13.50;65.30;;;;;;5036102;28;20902;-44
2023/05/02 06:59:12;;;;;;;66.32;35.75;;;13.50;65.30;;;;;;5037103;28;20045;-49
2023/05/02 07:01:40;;;;;;;62.58;34.08;;;13.40;65.40;;;;;;5030073;28;20056;-46
2023/05/02 07:04:07;;;;;;;60.42;33.03;;;13.40;65.70;;;;;;5034970;28;20049;-45
2023/05/02 07:06:35;;;;;;;62.42;34.38;;;13.40;66.00;;;;;;5037577;28;20382;-46
2023/05/02 07:09:02;;;;;;;64.20;33.38;;;13.40;66.20;;;;;;5035041;28;20045;-43
2023/05/02 07:11:29;;;;;;;63.65;35.22;;;13.40;66.40;;;;;;5035738;28;20622;-47
2023/05/02 07:13:58;;;;;;;59.97;31.85;;;13.40;66.60;;;;;;5037575;28;20133;-47
2023/05/02 07:16:26;;;;;;;64.60;34.72;;;13.40;66.90;;;;;;5036023;28;20068;-46
2023/05/02 07:18:53;;;;;;;63.05;32.80;;;13.40;67.10;;;;;;5033030;28;20052;-45
2023/05/02 07:21:20;;;;;;;68.68;35.53;;;13.50;67.10;;;;;;5033045;28;20068;-44
2023/05/02 07:23:48;;;;;;;70.22;33.90;;;13.50;67.30;;;;;;5032643;28;20064;-44
2023/05/02 07:26:17;;;;;;;63.67;34.22;;;13.60;67.50;;;;;;5038186;28;20060;-43
2023/05/02 07:28:44;;;;;;;62.78;33.80;;;13.60;67.40;;;;;;5040810;28;20061;-42
2023/05/02 07:31:13;;;;;;;58.50;32.08;;;13.70;67.00;;;;;;5038540;28;20056;-45
2023/05/02 07:33:41;;;;;;;58.53;31.73;;;13.70;67.00;;;;;;5039108;28;20052;-46
2023/05/02 07:36:08;;;;;;;59.35;32.88;;;13.70;66.90;;;;;;5036365;28;20527;-46
2023/05/02 07:38:35;;;;;;;52.65;29.23;;;13.80;66.50;;;;;;5033196;28;20424;-44
2023/05/02 07:41:03;;;;;;;55.92;30.40;;;13.80;66.30;;;;;;5037094;28;20045;-47
2023/05/02 07:43:30;;;;;;;56.95;29.63;;;13.80;66.30;;;;;;5037917;28;20413;-49
2023/05/02 07:45:57;;;;;;;48.40;26.83;;;13.80;66.30;;;;;;5036142;28;20052;-45
2023/05/02 07:48:26;;;;;;;47.95;27.52;;;13.80;66.40;;;;;;5035676;28;20064;-45
2023/05/02 07:50:53;;;;;;;51.83;27.17;;;13.90;66.10;;;;;;5033680;28;20044;-45
2023/05/02 07:53:20;;;;;;;52.08;28.42;;;13.90;65.60;;;;;;5038156;28;20045;-46
2023/05/02 07:55:48;;;;;;;54.38;26.52;;;13.90;65.50;;;;;;5034163;28;20053;-42
2023/05/02 07:58:15;;;;;;;44.60;25.55;;;13.90;65.40;;;;;;5038544;28;20049;-45
2023/05/02 08:00:42;;;;;;;40.38;23.63;;;13.90;65.40;;;;;;5036022;28;20049;-46
2023/05/02 08:03:09;;;;;;;36.25;20.90;;;13.90;65.40;;;;;;5034786;28;20523;-48
2023/05/02 08:05:38;;;;;;;28.52;17.48;;;13.90;65.40;;;;;;5025018;28;20137;-44
2023/05/02 08:08:06;;;;;;;26.60;15.82;;;13.90;65.50;;;;;;5018501;28;20053;-42
2023/05/02 08:10:33;;;;;;;26.95;16.13;;;13.90;65.50;;;;;;5017625;28;20049;-44
2023/05/02 08:13:00;;;;;;;23.20;15.10;;;13.90;65.30;;;;;;5017662;28;20080;-43
2023/05/02 08:15:29;;;;;;;24.33;15.30;;;13.90;65.50;;;;;;5015398;28;20053;-48
2023/05/02 08:17:56;;;;;;;26.58;15.82;;;13.90;65.60;;;;;;5016734;28;20053;-47
2023/05/02 08:20:23;;;;;;;27.30;16.00;;;13.80;65.40;;;;;;5018199;28;20053;-46
2023/05/02 08:22:52;;;;;;;32.35;18.83;;;13.80;65.60;;;;;;5017370;28;20049;-44
2023/05/02 08:25:19;;;;;;;31.83;18.50;;;13.80;66.00;;;;;;5012404;28;20076;-49
2023/05/02 08:27:46;;;;;;;34.28;20.85;;;13.80;66.00;;;;;;5015820;28;20057;-47
2023/05/02 08:30:14;;;;;;;39.40;22.23;;;13.80;66.30;;;;;;5014681;28;20057;-45
2023/05/02 08:32:41;;;;;;;34.67;21.95;;;13.80;66.50;;;;;;5016803;28;20049;-47
2023/05/02 08:35:09;;;;;;;38.35;23.35;;;13.70;66.70;;;;;;5013943;28;20057;-44
2023/05/02 08:37:36;;;;;;;42.58;24.17;;;13.80;66.80;;;;;;5016631;28;20057;-50
2023/05/02 08:40:07;;;;;;;40.08;26.55;;;13.70;66.60;;;;;;5018156;28;20049;-50
2023/05/02 08:42:35;;;;;;;43.28;28.45;;;13.70;66.50;;;;;;5015705;28;20060;-44
2023/05/02 08:45:03;;;;;;;48.90;30.17;;;13.70;66.30;;;;;;5015517;28;20065;-49
2023/05/02 08:47:31;;;;;;;45.95;29.50;;;13.70;66.20;;;;;;5016100;28;20057;-47
2023/05/02 08:50:00;;;;;;;42.65;27.90;;;13.70;66.30;;;;;;5020062;28;20053;-48
2023/05/02 08:52:28;;;;;;;44.78;30.70;;;13.70;66.20;;;;;;5022229;28;20049;-53
2023/05/02 08:54:56;;;;;;;47.92;30.45;;;13.70;66.30;;;;;;5020624;28;20053;-47
2023/05/02 08:57:25;;;;;;;42.92;29.40;;;13.80;66.60;;;;;;5021255;28;20057;-48
2023/05/02 08:59:53;;;;;;;40.55;28.42;;;13.80;66.90;;;;;;5019315;28;20061;-49
2023/05/02 09:02:34;;;;;;;39.83;26.45;;;13.80;66.40;;;;;;5019891;28;20064;-43
2023/05/02 09:05:07;;;;;;;39.72;26.33;;;13.80;66.70;;;;;;5026019;28;20064;-47
2023/05/02 09:07:45;;;;;;;37.55;24.33;;;13.90;67.00;;;;;;5040179;28;20056;-50
2023/05/02 09:10:12;;;;;;;29.63;21.60;;;13.90;66.40;;;;;;5037131;28;20408;-46
2023/05/02 09:12:41;;;;;;;25.30;17.55;;;14.00;66.10;;;;;;5037907;28;20044;-45
2023/05/02 09:15:12;;;;;;;27.27;16.50;;;14.00;65.20;;;;;;5031467;28;20053;-51
2023/05/02 09:17:41;;;;;;;27.67;17.13;;;13.90;64.20;;;;;;5032518;28;21183;-48
2023/05/02 09:20:10;;;;;;;24.77;15.98;;;13.90;63.50;;;;;;5038604;28;20045;-50
2023/05/02 09:22:38;;;;;;;26.95;14.43;;;13.90;63.40;;;;;;5039585;28;20080;-46
2023/05/02 09:25:06;;;;;;;31.85;16.83;;;13.90;63.40;;;;;;5038356;28;20056;-51
2023/05/02 09:27:51;;;;;;;32.78;18.60;;;13.90;62.90;;;;;;5036439;28;20497;-50
2023/05/02 09:30:20;;;;;;;33.13;15.88;;;13.90;60.80;;;;;;5033843;28;20056;-50
2023/05/02 09:32:50;;;;;;;25.85;14.70;;;13.80;60.70;;;;;;5038189;28;20067;-49
2023/05/02 09:35:22;;;;;;;26.83;14.43;;;13.80;60.10;;;;;;5034253;28;20053;-49
2023/05/02 09:37:54;;;;;;;24.70;15.13;;;13.80;60.40;;;;;;5033335;28;20531;-50
2023/05/02 09:40:22;;;;;;;29.23;15.38;;;13.70;60.80;;;;;;5037254;28;20049;-49
2023/05/02 09:42:51;;;;;;;32.63;15.25;;;13.80;60.30;;;;;;5037295;28;20044;-49
2023/05/02 09:45:22;;;;;;;23.58;14.65;;;13.70;60.30;;;;;;5034983;28;20059;-49
2023/05/02 09:47:50;;;;;;;26.73;15.95;;;13.80;60.80;;;;;;5032745;28;20049;-46
2023/05/02 09:50:34;;;;;;;24.65;15.85;;;13.80;61.30;;;;;;5030892;28;20255;-47
2023/05/02 09:53:02;;;;;;;22.05;14.48;;;13.80;60.70;;;;;;5028160;28;20052;-50
2023/05/02 09:55:30;;;;;;;22.55;13.20;;;13.80;60.20;;;;;;5033570;28;20056;-52
2023/05/02 09:57:59;;;;;;;22.95;13.25;;;13.90;59.30;;;;;;5032560;28;20053;-48
2023/05/02 10:00:40;;;;;;;19.77;12.63;;;13.90;59.80;;;;;;5032156;28;20052;-48
2023/05/02 10:03:08;;;;;;;23.65;13.70;;;13.90;60.10;;;;;;5028710;28;20048;-49
2023/05/02 10:05:37;;;;;;;20.52;12.90;;;13.90;60.40;;;;;;5023348;28;20504;-46
2023/05/02 10:08:07;;;;;;;22.45;13.30;;;14.00;60.90;;;;;;5017398;28;20065;-46
2023/05/02 10:10:37;;;;;;;18.45;12.75;;;14.00;60.70;;;;;;5030809;28;20493;-47
2023/05/02 10:13:07;;;;;;;19.92;12.52;;;14.10;60.40;;;;;;5020941;28;20471;-46
2023/05/02 10:15:42;;;;;;;19.90;12.90;;;14.10;60.00;;;;;;5009281;28;20901;-47
2023/05/02 10:18:14;;;;;;;19.58;12.38;;;14.10;59.80;;;;;;5021273;28;20378;-48
2023/05/02 10:20:49;;;;;;;16.92;10.05;;;14.10;59.30;;;;;;5024129;28;20058;-46
2023/05/02 10:23:18;;;;;;;15.02;10.30;;;14.10;58.90;;;;;;5026212;28;20484;-46
2023/05/02 10:25:45;;;;;;;23.70;11.60;;;14.10;58.80;;;;;;5024048;28;20057;-48
2023/05/02 10:28:15;;;;;;;16.35;11.05;;;14.10;58.80;;;;;;5025513;28;20073;-51
2023/05/02 10:30:42;;;;;;;18.80;11.82;;;14.10;58.70;;;;;;5021253;28;20053;-46
2023/05/02 10:33:11;;;;;;;23.23;11.63;;;14.10;58.90;;;;;;5021923;28;20507;-51
2023/05/02 10:35:43;;;;;;;16.83;10.30;;;14.10;58.80;;;;;;5017919;28;20064;-45
2023/05/02 10:38:11;;;;;;;17.10;12.32;;;14.10;58.90;;;;;;5020822;28;20064;-47
2023/05/02 10:40:39;;;;;;;28.50;16.80;;;14.10;59.10;;;;;;5020503;28;20049;-52
2023/05/02 10:43:07;;;;;;;30.70;19.65;;;14.10;58.90;;;;;;5023726;28;20048;-48
2023/05/02 10:45:37;;;;;;;28.02;19.20;;;14.00;58.10;;;;;;5016119;28;20350;-47
2023/05/02 10:48:16;;;;;;;31.33;21.10;;;14.00;58.40;;;;;;5023474;28;20080;-49
2023/05/02 10:50:46;;;;;;;40.35;21.50;;;14.00;58.30;;;;;;5021145;28;20045;-47
2023/05/02 10:53:24;;;;;;;29.75;18.67;;;13.90;58.60;;;;;;5017159;28;20056;-51
2023/05/02 10:56:17;;;;;;;26.65;17.92;;;13.90;58.60;;;;;;5021295;28;20489;-50
2023/05/02 10:58:45;;;;;;;22.83;14.93;;;14.00;58.60;;;;;;5020109;28;20052;-52
2023/05/02 11:01:38;;;;;;;22.05;14.13;;;13.90;58.30;;;;;;5023438;28;20423;-55
2023/05/02 11:04:07;;;;;;;28.55;13.30;;;13.90;58.40;;;;;;5002137;28;20057;-55
2023/05/02 11:06:36;;;;;;;19.10;10.25;;;13.90;58.10;;;;;;5024378;28;20148;-50
2023/05/02 11:09:34;;;;;;;17.77;10.13;;;13.90;57.40;;;;;;5018849;28;20084;-51
2023/05/02 11:12:03;;;;;;;18.20;10.75;;;13.80;57.40;;;;;;5028503;28;20041;-49
2023/05/02 11:14:49;;;;;;;18.15;10.10;;;13.80;57.60;;;;;;5029849;28;20046;-49
2023/05/02 11:17:19;;;;;;;20.58;10.98;;;13.80;57.80;;;;;;5028392;28;20053;-50
2023/05/02 11:20:26;;;;;;;19.63;10.07;;;13.90;57.60;;;;;;5027236;28;20064;-45
2023/05/02 11:22:55;;;;;;;19.33;9.85;;;13.90;57.60;;;;;;5025347;28;20143;-48
2023/05/02 11:25:35;;;;;;;16.33;9.15;;;14.00;57.70;;;;;;5032376;28;20064;-50
2023/05/02 11:28:04;;;;;;;15.82;9.40;;;14.00;57.70;;;;;;5023073;28;20516;-47
2023/05/02 11:30:42;;;;;;;19.70;9.15;;;14.00;56.90;;;;;;5026088;28;20053;-49
2023/05/02 11:33:18;;;;;;;19.85;10.38;;;14.10;57.10;;;;;;5024409;28;20049;-46
2023/05/02 11:35:47;;;;;;;23.67;11.98;;;14.20;57.00;;;;;;5030838;28;20060;-49
2023/05/02 11:38:17;;;;;;;18.83;12.00;;;14.20;56.60;;;;;;5039306;28;20056;-48
2023/05/02 11:40:55;;;;;;;21.23;11.73;;;14.30;56.40;;;;;;5017598;28;20053;-47
2023/05/02 11:43:24;;;;;;;23.63;12.20;;;14.30;56.00;;;;;;5028078;28;20060;-52
2023/05/02 11:45:53;;;;;;;20.30;11.18;;;14.30;54.00;;;;;;5026324;28;20515;-43
2023/05/02 11:48:25;;;;;;;18.20;10.98;;;14.40;55.00;;;;;;5031950;28;20421;-52
2023/05/02 11:50:54;;;;;;;17.25;10.23;;;14.40;55.30;;;;;;5035163;28;20050;-46
2023/05/02 11:53:23;;;;;;;19.92;10.10;;;14.40;55.50;;;;;;5027103;28;20060;-51
2023/05/02 11:55:52;;;;;;;18.05;9.50;;;14.40;55.30;;;;;;5026571;28;20402;-49
2023/05/02 11:58:20;;;;;;;18.48;9.73;;;14.50;54.60;;;;;;5027544;28;20501;-51
2023/05/02 12:00:49;;;;;;;15.25;9.52;;;14.40;54.30;;;;;;5018977;28;20068;-53
2023/05/02 12:03:28;;;;;;;16.27;9.27;;;14.40;54.70;;;;;;5023708;28;20421;-54
2023/05/02 12:05:56;;;;;;;36.65;13.35;;;14.50;53.20;;;;;;5034655;28;20064;-52
2023/05/02 12:08:25;;;;;;;14.70;9.13;;;14.50;53.60;;;;;;5041232;28;20057;-51
2023/05/02 12:10:54;;;;;;;14.88;9.32;;;14.50;52.90;;;;;;5037145;28;20068;-53
2023/05/02 12:13:23;;;;;;;16.63;10.18;;;14.50;53.10;;;;;;5041230;28;20060;-52
2023/05/02 12:15:52;;;;;;;14.95;8.98;;;14.60;53.20;;;;;;5038577;28;20056;-51
2023/05/02 12:18:22;;;;;;;12.93;8.70;;;14.60;53.40;;;;;;5039902;28;20076;-49
2023/05/02 12:20:51;;;;;;;15.65;9.98;;;14.70;53.50;;;;;;5037685;28;20076;-52
2023/05/02 12:23:20;;;;;;;18.67;11.50;;;14.80;53.40;;;;;;5039032;28;20064;-49
2023/05/02 12:25:48;;;;;;;22.05;12.57;;;14.80;53.20;;;;;;5042253;28;20053;-46
2023/05/02 12:28:17;;;;;;;20.85;12.75;;;14.90;53.30;;;;;;5043221;28;20064;-53
2023/05/02 12:30:48;;;;;;;14.70;11.45;;;15.00;52.70;;;;;;5042337;28;20068;-49
2023/05/02 12:33:16;;;;;;;18.50;10.32;;;15.00;53.10;;;;;;5042941;28;20511;-53
2023/05/02 12:35:46;;;;;;;16.77;10.27;;;15.10;52.20;;;;;;5044542;28;20493;-50
2023/05/02 12:38:21;;;;;;;16.92;10.43;;;15.10;52.10;;;;;;5043582;28;20123;-53
2023/05/02 12:40:50;;;;;;;14.68;8.77;;;15.20;52.50;;;;;;5044348;28;20063;-52